createdAt,value
2022-08-27T00:01:02.625Z,23.55
2022-08-27T00:03:40.539Z,23.65
2022-08-27T00:06:15.239Z,23.69
2022-08-27T00:08:49.663Z,23.69
2022-08-27T00:11:23.646Z,23.66
2022-08-27T00:13:56.708Z,23.57
2022-08-27T00:16:28.831Z,23.35
2022-08-27T00:19:02.081Z,23.47
2022-08-27T00:21:34.377Z,23.43
2022-08-27T00:24:07.104Z,23.38
2022-08-27T00:26:43.102Z,23.37
2022-08-27T00:29:15.347Z,23.27
2022-08-27T00:31:47.212Z,23.31
2022-08-27T00:34:26.131Z,23.41
2022-08-27T00:36:58.240Z,23.32
2022-08-27T00:39:30.330Z,23.35
2022-08-27T00:42:02.151Z,23.18
2022-08-27T00:44:34.019Z,23.22
2022-08-27T00:47:11.927Z,23.18
2022-08-27T00:49:50.323Z,23.08
2022-08-27T00:52:27.243Z,23.13
2022-08-27T00:55:03.506Z,23.09
2022-08-27T00:57:39.063Z,23.06
2022-08-27T01:00:17.020Z,22.97
2022-08-27T01:02:49.349Z,22.97
2022-08-27T01:05:27.293Z,23.00
2022-08-27T01:08:04.846Z,23.01
2022-08-27T01:10:38.577Z,22.97
2022-08-27T01:13:11.626Z,22.86
2022-08-27T01:15:44.284Z,22.88
2022-08-27T01:18:18.223Z,22.95
2022-08-27T01:20:56.716Z,22.78
2022-08-27T01:23:38.008Z,22.75
2022-08-27T01:26:14.328Z,22.69
2022-08-27T01:28:47.045Z,22.55
2022-08-27T01:31:17.285Z,22.57
2022-08-27T01:33:59.567Z,22.63
2022-08-27T01:36:32.018Z,22.57
2022-08-27T01:39:03.882Z,22.47
2022-08-27T01:41:37.756Z,22.58
2022-08-27T01:44:09.924Z,22.61
2022-08-27T01:46:41.747Z,22.65
2022-08-27T01:49:13.900Z,22.66
2022-08-27T01:51:46.217Z,22.65
2022-08-27T01:54:17.926Z,22.51
2022-08-27T01:56:49.669Z,22.51
2022-08-27T01:59:21.514Z,22.44
2022-08-27T02:01:55.459Z,22.37
2022-08-27T02:04:27.318Z,22.36
2022-08-27T02:07:00.197Z,22.29
2022-08-27T02:09:33.297Z,22.24
2022-08-27T02:12:08.267Z,22.18
2022-08-27T02:14:40.721Z,22.26
2022-08-27T02:17:13.251Z,22.22
2022-08-27T02:19:43.462Z,22.24
2022-08-27T02:22:15.421Z,22.23
2022-08-27T02:24:47.381Z,22.34
2022-08-27T02:27:19.498Z,22.45
2022-08-27T02:29:52.283Z,22.49
2022-08-27T02:32:31.502Z,22.50
2022-08-27T02:35:05.101Z,22.45
2022-08-27T02:37:35.344Z,22.44
2022-08-27T02:40:09.682Z,22.38
2022-08-27T02:42:41.482Z,22.34
2022-08-27T02:45:14.473Z,22.16
2022-08-27T02:47:46.324Z,22.12
2022-08-27T02:50:18.357Z,22.21
2022-08-27T02:52:50.686Z,22.20
2022-08-27T02:55:23.406Z,22.08
2022-08-27T02:57:55.801Z,22.02
2022-08-27T03:00:28.743Z,22.07
2022-08-27T03:03:00.588Z,22.10
2022-08-27T03:05:32.632Z,22.16
2022-08-27T03:08:05.071Z,22.13
2022-08-27T03:10:36.887Z,22.02
2022-08-27T03:13:08.707Z,21.93
2022-08-27T03:15:40.565Z,21.92
2022-08-27T03:18:21.815Z,21.74
2022-08-27T03:20:55.751Z,21.70
2022-08-27T03:23:32.967Z,21.71
2022-08-27T03:26:11.372Z,21.78
2022-08-27T03:28:43.820Z,21.86
2022-08-27T03:31:26.932Z,21.92
2022-08-27T03:34:01.784Z,21.97
2022-08-27T03:36:33.696Z,21.97
2022-08-27T03:39:05.564Z,21.96
2022-08-27T03:41:43.733Z,21.89
2022-08-27T03:44:27.139Z,21.85
2022-08-27T03:47:00.140Z,21.78
2022-08-27T03:49:32.073Z,21.84
2022-08-27T03:52:05.315Z,21.80
2022-08-27T03:54:38.318Z,21.71
2022-08-27T03:57:10.687Z,21.73
2022-08-27T03:59:42.565Z,21.54
2022-08-27T04:02:16.361Z,21.49
2022-08-27T04:04:48.288Z,21.47
2022-08-27T04:07:20.152Z,21.56
2022-08-27T04:09:52.166Z,21.58
2022-08-27T04:12:24.002Z,21.62
2022-08-27T04:14:55.805Z,21.66
2022-08-27T04:17:27.658Z,21.68
2022-08-27T04:20:08.691Z,21.66
2022-08-27T04:22:51.630Z,21.57
2022-08-27T04:25:23.432Z,21.67
2022-08-27T04:27:55.387Z,21.69
2022-08-27T04:30:27.247Z,21.75
2022-08-27T04:32:59.268Z,21.81
2022-08-27T04:35:31.266Z,21.83
2022-08-27T04:38:03.154Z,21.79
2022-08-27T04:40:54.700Z,21.80
2022-08-27T04:43:28.253Z,21.83
2022-08-27T04:46:00.187Z,21.84
2022-08-27T04:48:32.017Z,21.83
2022-08-27T04:51:03.211Z,21.81
2022-08-27T04:53:35.881Z,21.72
2022-08-27T04:56:08.545Z,21.80
2022-08-27T04:58:46.812Z,21.81
2022-08-27T05:01:21.264Z,21.79
2022-08-27T05:03:54.206Z,21.88
2022-08-27T05:06:24.603Z,21.90
2022-08-27T05:08:58.069Z,21.86
2022-08-27T05:11:32.424Z,21.90
2022-08-27T05:14:06.703Z,21.91
2022-08-27T05:16:39.310Z,21.89
2022-08-27T05:19:14.820Z,21.91
2022-08-27T05:21:49.572Z,21.94
2022-08-27T05:24:22.219Z,21.97
2022-08-27T05:26:52.501Z,22.02
2022-08-27T05:29:24.361Z,21.90
2022-08-27T05:31:56.481Z,21.96
2022-08-27T05:34:29.190Z,21.95
2022-08-27T05:37:02.400Z,21.93
2022-08-27T05:39:34.216Z,21.95
2022-08-27T05:42:07.294Z,21.93
2022-08-27T05:44:41.286Z,21.98
2022-08-27T05:47:13.735Z,21.96
2022-08-27T05:49:45.796Z,21.95
2022-08-27T05:52:17.497Z,22.04
2022-08-27T05:54:49.324Z,22.07
2022-08-27T05:57:21.302Z,22.01
2022-08-27T06:00:15.736Z,21.92
2022-08-27T06:02:47.796Z,22.00
2022-08-27T06:05:20.085Z,22.14
2022-08-27T06:07:51.949Z,22.12
2022-08-27T06:10:23.729Z,22.14
2022-08-27T06:12:57.143Z,22.13
2022-08-27T06:15:29.451Z,22.26
2022-08-27T06:18:01.707Z,22.30
2022-08-27T06:20:33.595Z,22.35
2022-08-27T06:23:05.480Z,22.42
2022-08-27T06:25:40.966Z,22.44
2022-08-27T06:28:13.595Z,22.48
2022-08-27T06:30:45.470Z,22.57
2022-08-27T06:33:17.297Z,22.62
2022-08-27T06:35:49.256Z,22.65
2022-08-27T06:38:21.145Z,22.70
2022-08-27T06:40:53.789Z,22.74
2022-08-27T06:43:25.264Z,22.73
2022-08-27T06:45:57.788Z,22.73
2022-08-27T06:48:29.586Z,22.73
2022-08-27T06:51:12.484Z,22.79
2022-08-27T06:53:44.666Z,22.85
2022-08-27T06:56:17.423Z,22.85
2022-08-27T06:58:50.009Z,22.87
2022-08-27T07:01:22.432Z,22.91
2022-08-27T07:03:57.882Z,22.90
2022-08-27T07:06:31.906Z,23.00
2022-08-27T07:09:04.637Z,23.09
2022-08-27T07:11:37.406Z,23.20
2022-08-27T07:14:08.273Z,23.28
2022-08-27T07:16:42.171Z,23.30
2022-08-27T07:19:17.312Z,23.31
2022-08-27T07:21:49.343Z,23.37
2022-08-27T07:24:21.796Z,23.43
2022-08-27T07:26:53.977Z,23.46
2022-08-27T07:29:31.717Z,23.52
2022-08-27T07:32:04.449Z,23.61
2022-08-27T07:34:36.563Z,23.67
2022-08-27T07:37:07.523Z,23.69
2022-08-27T07:39:39.478Z,23.74
2022-08-27T07:42:28.888Z,23.79
2022-08-27T07:45:00.879Z,23.85
2022-08-27T07:47:31.957Z,23.86
2022-08-27T07:50:03.871Z,23.86
2022-08-27T07:52:35.855Z,23.93
2022-08-27T07:55:09.201Z,23.98
2022-08-27T07:57:42.050Z,24.04
2022-08-27T08:00:15.388Z,24.05
2022-08-27T08:02:47.451Z,24.09
2022-08-27T08:05:20.253Z,24.17
2022-08-27T08:07:52.736Z,24.20
2022-08-27T08:10:23.411Z,24.21
2022-08-27T08:12:55.387Z,24.27
2022-08-27T08:15:27.273Z,24.36
2022-08-27T08:17:59.908Z,24.42
2022-08-27T08:20:56.572Z,24.43
2022-08-27T08:23:24.442Z,24.44
2022-08-27T08:25:58.689Z,24.51
2022-08-27T08:28:31.190Z,24.59
2022-08-27T08:31:03.285Z,24.61
2022-08-27T08:33:36.021Z,24.67
2022-08-27T08:36:12.050Z,24.73
2022-08-27T08:38:45.896Z,24.87
2022-08-27T08:41:35.192Z,24.90
2022-08-27T08:44:16.460Z,24.94
2022-08-27T08:46:56.543Z,24.96
2022-08-27T08:49:39.569Z,25.04
2022-08-27T08:52:30.459Z,25.10
2022-08-27T08:55:14.360Z,25.14
2022-08-27T08:57:49.716Z,25.20
2022-08-27T09:00:21.693Z,25.26
2022-08-27T09:02:56.504Z,25.42
2022-08-27T09:05:28.418Z,25.46
2022-08-27T09:08:32.319Z,25.51
2022-08-27T09:11:11.895Z,25.63
2022-08-27T09:13:50.633Z,25.75
2022-08-27T09:16:23.177Z,25.77
2022-08-27T09:18:54.353Z,25.86
2022-08-27T09:21:37.490Z,25.91
2022-08-27T09:24:20.053Z,25.96
2022-08-27T09:26:52.461Z,26.09
2022-08-27T09:29:27.432Z,26.22
2022-08-27T09:32:01.728Z,26.38
2022-08-27T09:34:38.897Z,26.44
2022-08-27T09:37:15.485Z,26.58
2022-08-27T09:40:01.207Z,26.65
2022-08-27T09:42:37.621Z,26.79
2022-08-27T09:45:16.106Z,26.98
2022-08-27T09:47:51.261Z,27.10
2022-08-27T09:50:26.236Z,27.22
2022-08-27T09:53:01.146Z,27.39
2022-08-27T09:55:44.828Z,27.56
2022-08-27T09:58:22.968Z,27.71
2022-08-27T10:03:51.347Z,27.98
2022-08-27T10:06:31.326Z,28.11
2022-08-27T10:09:09.341Z,28.21
2022-08-27T10:11:46.947Z,28.36
2022-08-27T10:14:24.704Z,28.47
2022-08-27T10:17:13.035Z,28.63
2022-08-27T10:19:53.688Z,28.76
2022-08-27T10:22:37.034Z,28.82
2022-08-27T10:25:23.965Z,28.98
2022-08-27T10:28:07.721Z,29.07
2022-08-27T10:30:59.945Z,29.26
2022-08-27T10:33:44.697Z,29.42
2022-08-27T10:36:33.504Z,29.54
2022-08-27T10:39:12.853Z,29.70
2022-08-27T10:41:49.756Z,29.80
2022-08-27T10:44:39.818Z,29.90
2022-08-27T10:47:29.246Z,30.04
2022-08-27T10:50:07.821Z,30.12
2022-08-27T10:52:45.708Z,30.24
2022-08-27T10:55:27.601Z,30.36
2022-08-27T10:58:30.380Z,30.32
2022-08-27T11:01:11.007Z,30.50
2022-08-27T11:03:47.697Z,30.72
2022-08-27T11:06:27.271Z,30.83
2022-08-27T11:09:07.659Z,30.97
2022-08-27T11:14:39.505Z,31.06
2022-08-27T11:17:17.828Z,31.17
2022-08-27T11:19:58.265Z,31.21
2022-08-27T11:22:35.802Z,31.39
2022-08-27T11:25:16.672Z,31.50
2022-08-27T11:27:50.322Z,31.42
2022-08-27T11:30:32.751Z,31.45
2022-08-27T11:33:13.982Z,31.57
2022-08-27T11:36:05.011Z,31.68
2022-08-27T11:38:52.259Z,31.68
2022-08-27T11:41:52.691Z,31.74
2022-08-27T11:44:27.601Z,31.79
2022-08-27T11:47:11.415Z,31.96
2022-08-27T11:49:49.099Z,32.03
2022-08-27T11:52:29.261Z,32.07
2022-08-27T11:55:25.206Z,31.98
2022-08-27T11:58:10.116Z,31.94
2022-08-27T12:00:43.695Z,32.08
2022-08-27T12:03:30.198Z,32.06
2022-08-27T12:06:18.937Z,32.06
2022-08-27T12:08:51.879Z,32.10
2022-08-27T12:11:36.048Z,32.06
2022-08-27T12:14:21.578Z,32.20
2022-08-27T12:17:02.223Z,32.26
2022-08-27T12:19:49.254Z,32.18
2022-08-27T12:22:56.405Z,32.16
2022-08-27T12:25:28.533Z,32.23
2022-08-27T12:28:03.185Z,32.27
2022-08-27T12:30:38.095Z,32.21
2022-08-27T12:33:23.027Z,32.23
2022-08-27T12:35:58.099Z,32.19
2022-08-27T12:38:48.022Z,32.10
2022-08-27T12:41:32.044Z,32.12
2022-08-27T12:44:09.031Z,32.15
2022-08-27T12:46:49.746Z,32.20
2022-08-27T12:49:39.112Z,32.20
2022-08-27T12:52:30.509Z,32.16
2022-08-27T12:55:15.250Z,32.29
2022-08-27T12:57:58.119Z,32.21
2022-08-27T13:00:39.396Z,32.23
2022-08-27T13:03:27.177Z,32.21
2022-08-27T13:06:01.023Z,32.23
2022-08-27T13:08:35.604Z,32.31
2022-08-27T13:11:21.922Z,32.33
2022-08-27T13:14:05.857Z,32.29
2022-08-27T13:16:40.249Z,32.39
2022-08-27T13:19:20.802Z,32.40
2022-08-27T13:21:54.393Z,32.38
2022-08-27T13:24:33.662Z,32.38
2022-08-27T13:27:07.519Z,32.26
2022-08-27T13:29:40.228Z,32.29
2022-08-27T13:32:15.383Z,32.38
2022-08-27T13:34:47.976Z,32.36
2022-08-27T13:37:28.695Z,32.43
2022-08-27T13:40:00.746Z,32.43
2022-08-27T13:42:32.123Z,32.44
2022-08-27T13:45:07.705Z,32.39
2022-08-27T13:47:47.526Z,32.39
2022-08-27T13:50:25.284Z,32.44
2022-08-27T13:53:23.899Z,32.50
2022-08-27T13:55:57.221Z,32.59
2022-08-27T13:58:31.700Z,32.61
2022-08-27T14:01:13.299Z,32.57
2022-08-27T14:03:56.569Z,32.56
2022-08-27T14:06:35.709Z,32.50
2022-08-27T14:09:17.373Z,32.36
2022-08-27T14:11:49.845Z,32.26
2022-08-27T14:14:21.728Z,32.46
2022-08-27T14:17:01.335Z,32.56
2022-08-27T14:19:36.454Z,32.68
2022-08-27T14:22:09.205Z,32.54
2022-08-27T14:24:41.589Z,32.57
2022-08-27T14:27:20.144Z,32.66
2022-08-27T14:29:52.234Z,32.69
2022-08-27T14:32:22.639Z,32.66
2022-08-27T14:34:54.517Z,32.54
2022-08-27T14:37:26.575Z,32.51
2022-08-27T14:39:56.856Z,32.52
2022-08-27T14:42:29.817Z,32.57
2022-08-27T14:45:01.503Z,32.43
2022-08-27T14:47:34.850Z,32.33
2022-08-27T14:50:08.115Z,32.42
2022-08-27T14:52:40.760Z,32.51
2022-08-27T14:55:14.513Z,32.61
2022-08-27T14:57:46.976Z,32.52
2022-08-27T15:00:19.788Z,32.60
2022-08-27T15:02:52.321Z,32.61
2022-08-27T15:05:25.140Z,32.57
2022-08-27T15:07:58.148Z,32.45
2022-08-27T15:10:30.482Z,32.23
2022-08-27T15:13:02.344Z,32.44
2022-08-27T15:15:34.908Z,32.49
2022-08-27T15:18:07.304Z,32.47
2022-08-27T15:20:40.558Z,32.32
2022-08-27T15:23:14.817Z,32.36
2022-08-27T15:25:47.800Z,32.40
2022-08-27T15:28:20.767Z,32.64
2022-08-27T15:30:53.301Z,32.73
2022-08-27T15:33:26.153Z,32.78
2022-08-27T15:36:03.424Z,32.70
2022-08-27T15:38:36.248Z,32.67
2022-08-27T15:41:10.691Z,32.67
2022-08-27T15:43:44.239Z,32.63
2022-08-27T15:46:17.202Z,32.51
2022-08-27T15:48:49.518Z,32.48
2022-08-27T15:51:27.530Z,32.55
2022-08-27T15:54:01.083Z,32.33
2022-08-27T15:56:34.729Z,32.08
2022-08-27T15:59:07.243Z,31.86
2022-08-27T16:01:39.788Z,31.62
2022-08-27T16:04:11.952Z,31.36
2022-08-27T16:06:44.667Z,31.17
2022-08-27T16:09:16.805Z,30.95
2022-08-27T16:11:48.799Z,30.79
2022-08-27T16:14:21.161Z,30.64
2022-08-27T16:16:52.930Z,30.47
2022-08-27T16:19:25.652Z,30.31
2022-08-27T16:21:58.146Z,30.18
2022-08-27T16:24:30.754Z,30.11
2022-08-27T16:27:02.851Z,30.05
2022-08-27T16:29:35.366Z,29.95
2022-08-27T16:32:06.211Z,29.65
2022-08-27T16:34:40.567Z,29.40
2022-08-27T16:37:12.446Z,29.24
2022-08-27T16:39:46.879Z,29.22
2022-08-27T16:42:19.399Z,29.19
2022-08-27T16:44:51.371Z,29.23
2022-08-27T16:47:23.079Z,29.17
2022-08-27T16:50:11.622Z,29.08
2022-08-27T16:52:57.638Z,28.98
2022-08-27T16:55:30.160Z,28.91
2022-08-27T16:58:02.944Z,28.74
2022-08-27T17:00:37.677Z,28.59
2022-08-27T17:03:09.987Z,28.58
2022-08-27T17:05:40.365Z,28.47
2022-08-27T17:08:13.642Z,28.36
2022-08-27T17:10:48.116Z,28.36
2022-08-27T17:13:22.969Z,28.35
2022-08-27T17:16:01.827Z,28.15
2022-08-27T17:18:35.506Z,28.19
2022-08-27T17:21:08.748Z,28.04
2022-08-27T17:23:43.388Z,27.94
2022-08-27T17:26:17.678Z,27.92
2022-08-27T17:28:50.411Z,27.94
2022-08-27T17:31:28.220Z,27.85
2022-08-27T17:34:03.987Z,27.77
2022-08-27T17:36:37.072Z,27.69
2022-08-27T17:39:09.289Z,27.63
2022-08-27T17:41:47.010Z,27.54
2022-08-27T17:44:24.314Z,27.25
2022-08-27T17:46:58.010Z,27.26
2022-08-27T17:49:31.010Z,27.19
2022-08-27T17:52:06.216Z,27.00
2022-08-27T17:54:41.809Z,27.05
2022-08-27T17:57:18.529Z,27.06
2022-08-27T17:59:51.115Z,26.96
2022-08-27T18:02:29.124Z,26.88
2022-08-27T18:05:01.997Z,26.76
2022-08-27T18:07:39.152Z,26.62
2022-08-27T18:10:14.258Z,26.64
2022-08-27T18:12:47.025Z,26.65
2022-08-27T18:15:23.833Z,26.60
2022-08-27T18:17:57.033Z,26.50
2022-08-27T18:20:30.691Z,26.55
2022-08-27T18:23:02.662Z,26.44
2022-08-27T18:25:36.747Z,26.24
2022-08-27T18:28:10.924Z,26.26
2022-08-27T18:30:45.998Z,26.46
2022-08-27T18:33:18.206Z,26.52
2022-08-27T18:35:52.061Z,26.43
2022-08-27T18:38:28.215Z,26.48
2022-08-27T18:41:00.718Z,26.45
2022-08-27T18:43:35.172Z,26.36
2022-08-27T18:46:07.543Z,26.38
2022-08-27T18:48:38.201Z,26.39
2022-08-27T18:51:13.302Z,26.32
2022-08-27T18:53:46.432Z,26.32
2022-08-27T18:56:21.091Z,26.27
2022-08-27T18:58:53.066Z,26.28
2022-08-27T19:01:27.743Z,26.21
2022-08-27T19:04:00.045Z,26.18
2022-08-27T19:06:32.072Z,26.21
2022-08-27T19:09:04.963Z,26.23
2022-08-27T19:11:36.859Z,26.17
2022-08-27T19:14:08.810Z,26.14
2022-08-27T19:16:45.643Z,26.10
2022-08-27T19:19:18.879Z,26.08
2022-08-27T19:21:51.870Z,26.12
2022-08-27T19:24:22.750Z,25.96
2022-08-27T19:26:55.622Z,25.72
2022-08-27T19:29:27.369Z,25.86
2022-08-27T19:31:59.220Z,25.90
2022-08-27T19:34:31.192Z,25.82
2022-08-27T19:37:05.713Z,25.72
2022-08-27T19:39:40.224Z,25.62
2022-08-27T19:42:12.985Z,25.57
2022-08-27T19:44:45.337Z,25.49
2022-08-27T19:47:25.195Z,25.51
2022-08-27T19:49:57.467Z,25.45
2022-08-27T19:52:27.817Z,25.50
2022-08-27T19:55:15.055Z,25.55
2022-08-27T19:57:47.482Z,25.29
2022-08-27T20:00:22.111Z,25.32
2022-08-27T20:02:54.285Z,25.42
2022-08-27T20:05:25.998Z,25.44
2022-08-27T20:07:57.738Z,25.34
2022-08-27T20:10:36.496Z,25.32
2022-08-27T20:13:11.312Z,25.22
2022-08-27T20:15:43.429Z,25.10
2022-08-27T20:18:18.665Z,25.10
2022-08-27T20:20:50.834Z,25.03
2022-08-27T20:23:23.290Z,25.15
2022-08-27T20:26:01.257Z,25.19
2022-08-27T20:28:39.226Z,25.22
2022-08-27T20:31:12.044Z,25.12
2022-08-27T20:33:44.499Z,25.10
2022-08-27T20:36:15.291Z,25.01
2022-08-27T20:38:47.570Z,24.95
2022-08-27T20:41:20.249Z,24.86
2022-08-27T20:43:52.671Z,24.83
2022-08-27T20:46:25.861Z,24.97
2022-08-27T20:48:58.472Z,25.04
2022-08-27T20:51:28.763Z,25.12
2022-08-27T20:54:01.136Z,25.10
2022-08-27T20:56:34.466Z,24.84
2022-08-27T20:59:24.524Z,24.85
2022-08-27T21:01:56.196Z,24.79
2022-08-27T21:04:28.073Z,24.62
2022-08-27T21:06:59.770Z,24.74
2022-08-27T21:09:31.785Z,24.91
2022-08-27T21:12:03.990Z,24.75
2022-08-27T21:14:35.829Z,24.78
2022-08-27T21:17:07.660Z,24.68
2022-08-27T21:19:40.293Z,24.72
2022-08-27T21:22:12.086Z,24.85
2022-08-27T21:24:43.942Z,24.87
2022-08-27T21:27:16.534Z,25.01
2022-08-27T21:29:46.674Z,24.84
2022-08-27T21:32:19.897Z,24.60
2022-08-27T21:34:51.844Z,24.50
2022-08-27T21:37:24.073Z,24.46
2022-08-27T21:39:56.271Z,24.41
2022-08-27T21:42:28.296Z,24.16
2022-08-27T21:45:00.464Z,24.27
2022-08-27T21:47:32.844Z,24.16
2022-08-27T21:50:05.858Z,24.15
2022-08-27T21:52:36.021Z,24.02
2022-08-27T21:55:09.569Z,23.92
2022-08-27T21:57:41.309Z,24.08
2022-08-27T22:00:37.377Z,23.98
2022-08-27T22:03:11.623Z,23.88
2022-08-27T22:05:45.463Z,23.95
2022-08-27T22:08:19.263Z,23.84
2022-08-27T22:10:53.896Z,23.70
2022-08-27T22:13:27.257Z,23.75
2022-08-27T22:15:59.986Z,23.74
2022-08-27T22:18:30.527Z,23.63
2022-08-27T22:21:03.909Z,23.61
2022-08-27T22:23:34.218Z,23.74
2022-08-27T22:26:06.037Z,23.67
2022-08-27T22:28:37.757Z,23.72
2022-08-27T22:31:13.260Z,23.67
2022-08-27T22:33:45.155Z,23.59
2022-08-27T22:36:17.030Z,23.56
2022-08-27T22:38:49.000Z,23.43
2022-08-27T22:41:19.731Z,23.40
2022-08-27T22:43:56.718Z,23.48
2022-08-27T22:46:29.998Z,23.49
2022-08-27T22:49:01.747Z,23.48
2022-08-27T22:51:33.444Z,23.43
2022-08-27T22:54:05.291Z,23.29
2022-08-27T22:56:37.286Z,23.29
2022-08-27T22:59:09.169Z,23.45
2022-08-27T23:01:40.974Z,23.51
2022-08-27T23:04:12.939Z,23.52
2022-08-27T23:06:44.826Z,23.44
2022-08-27T23:09:16.601Z,23.39
2022-08-27T23:11:48.876Z,23.37
2022-08-27T23:14:20.766Z,23.27
2022-08-27T23:16:52.581Z,23.31
2022-08-27T23:19:24.341Z,23.25
2022-08-27T23:21:56.160Z,23.15
2022-08-27T23:24:28.154Z,23.22
2022-08-27T23:27:16.771Z,23.18
2022-08-27T23:29:48.996Z,23.18
2022-08-27T23:32:20.739Z,23.27
2022-08-27T23:34:52.500Z,23.07
2022-08-27T23:37:25.146Z,22.96
2022-08-27T23:39:55.325Z,22.97
2022-08-27T23:42:27.717Z,22.91
2022-08-27T23:44:59.368Z,22.84
2022-08-27T23:47:31.164Z,22.77
2022-08-27T23:50:03.194Z,22.67
2022-08-27T23:52:35.789Z,22.71
2022-08-27T23:55:10.853Z,22.78
2022-08-27T23:57:42.573Z,22.76
